Time;durP1;ratioP1;P1;durP2;ratioP2;P2;SDS_P1;SDS_P2;PMS_P1;PMS_P2;Temp;Humidity;BMP_temperature;BMP_pressure;BME280_temperature;BME280_humidity;BME280_pressure;Samples;Min_cycle;Max_cycle;Signal;HPM_P1;HPM_P2
2021/06/30 00:00:08;;;;;;;1.30;1.17;;;23.00;62.00;;;;;;5035380;28;20414;-71
2021/06/30 00:02:34;;;;;;;1.13;1.00;;;23.00;62.00;;;;;;5034757;28;20176;-71
2021/06/30 00:04:59;;;;;;;1.13;1.02;;;23.00;62.00;;;;;;5035736;28;20180;-72
2021/06/30 00:07:25;;;;;;;1.30;1.20;;;23.00;62.00;;;;;;5034798;28;20172;-71
2021/06/30 00:09:50;;;;;;;1.05;1.00;;;23.00;62.00;;;;;;5035117;28;20537;-71
2021/06/30 00:12:16;;;;;;;0.90;0.90;;;23.00;62.00;;;;;;5035655;28;20206;-70
2021/06/30 00:14:41;;;;;;;2.42;1.40;;;23.00;62.10;;;;;;5034509;28;20176;-70
2021/06/30 00:17:07;;;;;;;1.23;1.13;;;23.00;62.10;;;;;;5035502;28;20176;-71
2021/06/30 00:19:33;;;;;;;0.85;0.85;;;22.90;62.00;;;;;;5034825;28;20212;-72
2021/06/30 00:21:58;;;;;;;1.13;1.00;;;23.00;62.10;;;;;;5034670;28;20630;-72
2021/06/30 00:24:24;;;;;;;0.90;0.90;;;23.00;62.10;;;;;;5034349;28;20175;-72
2021/06/30 00:26:50;;;;;;;1.05;1.00;;;22.90;62.00;;;;;;5034832;28;20175;-73
2021/06/30 00:29:15;;;;;;;1.13;1.02;;;23.00;62.10;;;;;;5034715;28;20605;-71
2021/06/30 00:31:41;;;;;;;1.05;1.02;;;23.00;62.10;;;;;;5034948;28;20176;-70
2021/06/30 00:34:06;;;;;;;0.90;0.90;;;22.90;62.10;;;;;;5034907;28;20218;-71
2021/06/30 00:36:36;;;;;;;0.88;0.88;;;23.00;62.20;;;;;;5034170;28;20184;-70
2021/06/30 00:39:03;;;;;;;1.30;0.90;;;22.90;62.10;;;;;;5035019;28;20239;-71
2021/06/30 00:41:31;;;;;;;0.80;0.80;;;22.90;62.10;;;;;;5034711;28;20187;-72
2021/06/30 00:43:57;;;;;;;0.95;0.90;;;22.90;62.20;;;;;;5034466;28;20172;-72
2021/06/30 00:46:26;;;;;;;1.13;1.02;;;22.90;62.10;;;;;;5034761;28;20246;-71
2021/06/30 00:48:52;;;;;;;1.45;1.10;;;22.90;62.10;;;;;;5034062;28;20227;-72
2021/06/30 00:51:18;;;;;;;1.55;1.05;;;22.90;62.10;;;;;;5034416;28;20223;-71
2021/06/30 00:53:43;;;;;;;0.88;0.88;;;22.90;62.10;;;;;;5034332;28;20253;-71
2021/06/30 00:56:09;;;;;;;0.82;0.82;;;22.90;62.10;;;;;;5016929;28;20172;-71
2021/06/30 00:58:34;;;;;;;0.80;0.80;;;22.90;62.20;;;;;;5033794;28;20208;-71
2021/06/30 01:00:59;;;;;;;0.98;0.88;;;22.90;62.20;;;;;;5017097;28;20176;-72
2021/06/30 01:03:25;;;;;;;0.80;0.80;;;22.90;62.20;;;;;;5034311;28;20171;-72
2021/06/30 01:05:50;;;;;;;1.70;0.80;;;22.90;62.20;;;;;;5033632;28;20533;-73
2021/06/30 01:08:16;;;;;;;0.70;0.70;;;22.90;62.20;;;;;;5034685;28;20168;-72
2021/06/30 01:10:42;;;;;;;0.80;0.80;;;22.90;62.20;;;;;;5033606;28;20226;-71
2021/06/30 01:13:07;;;;;;;0.75;0.75;;;22.90;62.20;;;;;;5034569;28;20238;-70
2021/06/30 01:15:44;;;;;;;0.70;0.70;;;22.90;62.20;;;;;;5034099;28;20338;-70
2021/06/30 01:18:10;;;;;;;0.93;0.90;;;22.90;62.20;;;;;;5033552;28;20545;-70
2021/06/30 01:20:35;;;;;;;0.70;0.70;;;22.90;62.20;;;;;;5033825;28;20168;-72
2021/06/30 01:23:08;;;;;;;1.35;0.90;;;22.90;62.30;;;;;;5034076;28;20176;-72
2021/06/30 01:25:34;;;;;;;0.90;0.90;;;22.80;62.20;;;;;;5033399;28;20180;-72
2021/06/30 01:27:59;;;;;;;1.65;0.75;;;22.80;62.20;;;;;;5034123;28;20250;-72
2021/06/30 01:30:25;;;;;;;0.98;0.98;;;22.80;62.20;;;;;;5033639;28;20176;-70
2021/06/30 01:32:50;;;;;;;2.15;1.10;;;22.80;62.20;;;;;;5033335;28;20180;-70
2021/06/30 01:35:21;;;;;;;1.02;0.60;;;22.80;62.20;;;;;;5033912;28;20168;-70
2021/06/30 01:37:47;;;;;;;0.70;0.70;;;22.80;62.20;;;;;;5033484;28;20182;-71
2021/06/30 01:40:13;;;;;;;0.98;0.95;;;22.80;62.20;;;;;;5033281;28;20211;-71
2021/06/30 01:42:42;;;;;;;0.85;0.85;;;22.80;62.20;;;;;;5033403;28;20176;-72
2021/06/30 01:45:07;;;;;;;0.90;0.90;;;22.80;62.20;;;;;;5033449;28;20203;-72
2021/06/30 01:47:33;;;;;;;1.13;0.88;;;22.80;62.20;;;;;;5033048;28;20257;-71
2021/06/30 01:49:58;;;;;;;0.73;0.73;;;22.80;62.20;;;;;;5033448;28;20689;-72
2021/06/30 01:52:29;;;;;;;0.93;0.93;;;22.80;62.30;;;;;;5033360;28;20198;-71
2021/06/30 01:54:54;;;;;;;0.80;0.80;;;22.80;62.20;;;;;;5032869;28;20183;-71
2021/06/30 01:57:20;;;;;;;1.25;0.80;;;22.80;62.30;;;;;;5033472;28;20171;-70
2021/06/30 01:59:45;;;;;;;0.52;0.52;;;22.80;62.30;;;;;;5032762;28;20203;-71
2021/06/30 02:02:11;;;;;;;0.70;0.70;;;22.70;62.20;;;;;;5032815;28;20568;-72
2021/06/30 02:04:36;;;;;;;1.02;0.80;;;22.80;62.30;;;;;;5033271;28;20180;-72
2021/06/30 02:07:02;;;;;;;0.60;0.60;;;22.80;62.40;;;;;;5015035;28;20230;-72
2021/06/30 02:09:27;;;;;;;0.70;0.70;;;22.80;62.30;;;;;;5033460;28;20175;-71
2021/06/30 02:11:53;;;;;;;1.30;0.60;;;22.80;62.30;;;;;;5032864;28;20176;-70
2021/06/30 02:14:18;;;;;;;1.88;0.90;;;22.80;62.30;;;;;;5032684;28;20180;-70
2021/06/30 02:16:44;;;;;;;0.70;0.70;;;22.70;62.20;;;;;;5033123;28;20635;-71
2021/06/30 02:19:11;;;;;;;1.52;1.00;;;22.70;62.20;;;;;;5032920;28;20215;-72
2021/06/30 02:21:37;;;;;;;0.70;0.70;;;22.80;62.30;;;;;;5032241;28;20542;-72
2021/06/30 02:24:03;;;;;;;1.52;0.80;;;22.70;62.20;;;;;;5033230;28;20175;-72
2021/06/30 02:26:29;;;;;;;0.70;0.70;;;22.70;62.20;;;;;;5032794;28;20620;-73
2021/06/30 02:28:55;;;;;;;0.75;0.70;;;22.70;62.20;;;;;;5032460;28;20207;-71
2021/06/30 02:31:21;;;;;;;0.85;0.85;;;22.70;62.20;;;;;;5033212;28;20180;-71
2021/06/30 02:33:46;;;;;;;0.85;0.70;;;22.70;62.20;;;;;;5032622;28;20519;-70
2021/06/30 02:36:12;;;;;;;1.17;0.80;;;22.70;62.20;;;;;;5032464;28;20585;-71
2021/06/30 02:38:38;;;;;;;0.60;0.60;;;22.70;62.20;;;;;;5032674;28;20737;-71
2021/06/30 02:41:04;;;;;;;0.75;0.75;;;22.70;62.20;;;;;;5032589;28;20225;-72
2021/06/30 02:43:29;;;;;;;0.60;0.60;;;22.70;62.20;;;;;;5032191;28;20192;-72
2021/06/30 02:45:54;;;;;;;0.77;0.77;;;22.70;62.20;;;;;;5033206;28;20536;-73
2021/06/30 02:48:20;;;;;;;0.77;0.77;;;22.70;62.20;;;;;;5039123;28;20175;-72
2021/06/30 02:50:46;;;;;;;0.77;0.77;;;22.70;62.20;;;;;;5038626;28;20238;-72
2021/06/30 02:53:11;;;;;;;0.60;0.60;;;22.70;62.20;;;;;;5039494;28;20179;-71
2021/06/30 02:55:37;;;;;;;1.02;0.70;;;22.70;62.20;;;;;;5038875;28;20199;-71
2021/06/30 02:58:02;;;;;;;0.63;0.57;;;22.60;62.20;;;;;;5038659;28;20633;-70
2021/06/30 03:00:28;;;;;;;0.63;0.60;;;22.60;62.20;;;;;;5039250;28;20183;-72
2021/06/30 03:02:54;;;;;;;1.08;0.60;;;22.60;62.20;;;;;;5038889;28;20656;-72
2021/06/30 03:05:19;;;;;;;0.60;0.60;;;22.60;62.20;;;;;;5038920;28;20317;-72
2021/06/30 03:07:45;;;;;;;0.60;0.60;;;22.60;62.20;;;;;;5039201;28;20689;-72
2021/06/30 03:10:11;;;;;;;0.85;0.85;;;22.60;62.20;;;;;;5038781;28;20172;-71
2021/06/30 03:12:37;;;;;;;0.50;0.50;;;22.60;62.20;;;;;;5038749;28;20218;-70
2021/06/30 03:15:04;;;;;;;0.60;0.60;;;22.60;62.20;;;;;;5039129;28;20199;-72
2021/06/30 03:17:31;;;;;;;0.50;0.50;;;22.60;62.20;;;;;;5038560;28;20200;-71
2021/06/30 03:19:56;;;;;;;0.88;0.88;;;22.60;62.20;;;;;;5039233;28;20211;-73
2021/06/30 03:22:22;;;;;;;0.60;0.60;;;22.60;62.20;;;;;;5039113;28;20259;-73
2021/06/30 03:24:47;;;;;;;1.35;0.60;;;22.60;62.20;;;;;;5038423;28;20637;-73
2021/06/30 03:27:13;;;;;;;0.65;0.60;;;22.60;62.20;;;;;;5039222;28;20687;-72
2021/06/30 03:29:38;;;;;;;0.70;0.70;;;22.60;62.20;;;;;;5038773;28;20242;-71
2021/06/30 03:32:04;;;;;;;0.50;0.50;;;22.60;62.20;;;;;;5038675;28;20167;-71
2021/06/30 03:34:30;;;;;;;0.95;0.50;;;22.60;62.20;;;;;;5038855;28;20176;-70
2021/06/30 03:36:55;;;;;;;0.93;0.65;;;22.60;62.20;;;;;;5038951;28;20176;-71
2021/06/30 03:39:21;;;;;;;0.70;0.70;;;22.60;62.30;;;;;;5038472;28;20580;-72
2021/06/30 03:41:46;;;;;;;0.60;0.60;;;22.60;62.20;;;;;;5038647;28;20222;-73
2021/06/30 03:44:12;;;;;;;0.60;0.60;;;22.60;62.20;;;;;;5038560;28;20589;-72
2021/06/30 03:46:37;;;;;;;0.50;0.50;;;22.60;62.20;;;;;;5038063;28;20621;-72
2021/06/30 03:49:03;;;;;;;0.50;0.50;;;22.50;62.20;;;;;;5038640;28;20231;-72
2021/06/30 03:51:28;;;;;;;0.57;0.57;;;22.50;62.20;;;;;;5038523;28;20671;-72
2021/06/30 03:53:54;;;;;;;0.60;0.60;;;22.60;62.30;;;;;;5038043;28;20168;-71
2021/06/30 03:56:24;;;;;;;0.52;0.52;;;22.50;62.30;;;;;;5038650;28;20234;-71
2021/06/30 03:58:54;;;;;;;0.80;0.80;;;22.50;62.20;;;;;;5036403;28;20262;-71
2021/06/30 04:01:20;;;;;;;0.60;0.60;;;22.60;62.20;;;;;;5035397;28;20287;-72
2021/06/30 04:03:49;;;;;;;1.30;0.70;;;22.50;62.20;;;;;;5035218;28;20556;-72
2021/06/30 04:06:15;;;;;;;1.20;0.80;;;22.50;62.30;;;;;;5035574;28;20234;-72
2021/06/30 04:08:40;;;;;;;0.60;0.60;;;22.50;62.20;;;;;;5034854;28;20172;-71
2021/06/30 04:11:06;;;;;;;0.80;0.57;;;22.50;62.20;;;;;;5035213;28;20194;-70
2021/06/30 04:13:31;;;;;;;0.75;0.70;;;22.50;62.30;;;;;;5034974;28;20172;-70
2021/06/30 04:15:57;;;;;;;0.65;0.65;;;22.50;62.30;;;;;;5035555;28;20192;-70
2021/06/30 04:18:22;;;;;;;0.30;0.30;;;22.50;62.20;;;;;;5035225;28;20179;-71
2021/06/30 04:20:48;;;;;;;0.50;0.50;;;22.50;62.20;;;;;;5034699;28;20187;-72
2021/06/30 04:23:13;;;;;;;0.50;0.50;;;22.50;62.20;;;;;;5035208;28;20627;-72
2021/06/30 04:25:39;;;;;;;0.50;0.50;;;22.50;62.20;;;;;;5034679;28;20278;-72
2021/06/30 04:28:05;;;;;;;0.40;0.40;;;22.50;62.20;;;;;;5035060;28;20222;-72
2021/06/30 04:30:31;;;;;;;0.50;0.50;;;22.50;62.20;;;;;;5035005;28;20172;-71
2021/06/30 04:32:56;;;;;;;1.00;0.45;;;22.50;62.20;;;;;;5035009;28;20184;-70
2021/06/30 04:35:22;;;;;;;0.70;0.70;;;22.50;62.20;;;;;;5034588;28;20223;-70
2021/06/30 04:37:47;;;;;;;1.00;0.50;;;22.50;62.20;;;;;;5034929;28;20172;-71
2021/06/30 04:40:13;;;;;;;0.50;0.50;;;22.50;62.20;;;;;;5033909;28;20581;-72
2021/06/30 04:42:41;;;;;;;0.77;0.70;;;22.50;62.20;;;;;;5034325;28;20190;-72
2021/06/30 04:45:07;;;;;;;1.17;0.77;;;22.40;62.40;;;;;;5035187;28;20183;-71
2021/06/30 04:47:33;;;;;;;1.08;0.70;;;22.40;60.80;;;;;;5034486;28;20171;-71
2021/06/30 04:49:58;;;;;;;1.85;0.80;;;22.40;60.30;;;;;;5034089;28;20300;-70
2021/06/30 04:52:24;;;;;;;1.40;0.90;;;22.40;60.20;;;;;;5034680;28;20171;-69
2021/06/30 04:54:49;;;;;;;0.77;0.77;;;22.40;60.70;;;;;;5034229;28;20188;-68
2021/06/30 04:57:15;;;;;;;1.73;1.00;;;22.40;61.00;;;;;;5034310;28;20218;-67
2021/06/30 04:59:40;;;;;;;0.95;0.80;;;22.40;61.20;;;;;;5034434;28;20270;-67
2021/06/30 05:02:06;;;;;;;0.70;0.70;;;22.40;61.20;;;;;;5034544;28;20499;-67
2021/06/30 05:04:31;;;;;;;1.48;0.80;;;22.40;61.20;;;;;;5033885;28;20167;-68
2021/06/30 05:06:57;;;;;;;2.47;0.70;;;22.40;61.20;;;;;;5034642;28;20168;-67
2021/06/30 05:09:23;;;;;;;1.45;0.80;;;22.40;61.30;;;;;;5033530;28;20206;-68
2021/06/30 05:11:48;;;;;;;1.10;0.85;;;22.40;61.50;;;;;;5033804;28;20283;-68
2021/06/30 05:14:14;;;;;;;1.50;0.70;;;22.50;61.60;;;;;;5033994;28;20705;-68
2021/06/30 05:16:39;;;;;;;1.30;1.02;;;22.50;61.40;;;;;;5033991;28;20186;-67
2021/06/30 05:19:09;;;;;;;1.92;1.17;;;22.50;61.40;;;;;;5033912;28;20261;-67
2021/06/30 05:21:34;;;;;;;1.55;1.08;;;22.50;61.00;;;;;;5033875;28;20179;-68
2021/06/30 05:24:00;;;;;;;0.90;0.90;;;22.50;60.50;;;;;;5033769;28;20229;-69
2021/06/30 05:26:28;;;;;;;2.35;0.98;;;22.50;60.30;;;;;;5034347;28;20187;-71
2021/06/30 05:28:54;;;;;;;1.63;1.20;;;22.50;60.50;;;;;;5032594;28;20184;-68
2021/06/30 05:31:19;;;;;;;1.75;1.10;;;22.40;60.50;;;;;;5033247;28;20183;-68
2021/06/30 05:33:45;;;;;;;1.67;1.25;;;22.50;60.50;;;;;;5033532;28;20199;-68
2021/06/30 05:36:10;;;;;;;4.43;1.27;;;22.40;60.50;;;;;;5033956;28;20245;-69
2021/06/30 05:38:36;;;;;;;1.50;0.80;;;22.50;61.40;;;;;;5032763;28;20214;-68
2021/06/30 05:41:02;;;;;;;1.50;1.00;;;22.50;60.60;;;;;;5033894;28;20195;-69
2021/06/30 05:43:28;;;;;;;1.27;1.17;;;22.50;60.60;;;;;;5033565;28;20550;-68
2021/06/30 05:45:54;;;;;;;2.53;1.17;;;22.50;60.60;;;;;;5026157;28;20181;-70
2021/06/30 05:48:19;;;;;;;1.15;1.00;;;22.50;60.70;;;;;;5013976;28;20242;-69
2021/06/30 05:50:45;;;;;;;1.88;1.10;;;22.50;60.70;;;;;;5013185;28;20224;-68
2021/06/30 05:53:10;;;;;;;1.10;1.00;;;22.50;60.80;;;;;;5013418;28;20172;-66
2021/06/30 05:55:36;;;;;;;2.17;1.10;;;22.50;60.80;;;;;;5049505;28;20589;-67
2021/06/30 05:58:01;;;;;;;1.10;1.00;;;22.50;60.80;;;;;;5038880;28;20665;-66
2021/06/30 06:00:27;;;;;;;2.40;1.20;;;22.50;60.80;;;;;;5023183;28;20303;-67
2021/06/30 06:02:52;;;;;;;1.42;1.10;;;22.60;61.00;;;;;;5022151;28;20226;-68
2021/06/30 06:05:18;;;;;;;1.80;1.10;;;22.50;61.30;;;;;;5033031;28;20207;-66
2021/06/30 06:07:43;;;;;;;2.05;1.17;;;22.60;61.40;;;;;;5032198;28;20263;-66
2021/06/30 06:10:12;;;;;;;4.35;1.20;;;22.60;61.30;;;;;;5033189;28;20176;-65
2021/06/30 06:12:38;;;;;;;1.52;1.42;;;22.60;61.50;;;;;;5032709;28;20203;-66
2021/06/30 06:15:05;;;;;;;1.45;1.17;;;22.60;61.80;;;;;;5032832;28;20218;-68
2021/06/30 06:17:31;;;;;;;2.40;1.20;;;22.60;61.90;;;;;;5032495;28;20186;-68
2021/06/30 06:19:56;;;;;;;1.02;1.02;;;22.60;61.70;;;;;;5033222;28;20204;-69
2021/06/30 06:22:21;;;;;;;1.63;1.27;;;22.60;61.70;;;;;;5031776;28;20274;-68
2021/06/30 06:24:47;;;;;;;2.72;1.10;;;22.60;61.80;;;;;;5032449;28;20176;-69
2021/06/30 06:27:13;;;;;;;2.78;1.00;;;22.60;61.80;;;;;;5032303;28;20634;-68
2021/06/30 06:29:39;;;;;;;2.72;1.00;;;22.60;61.70;;;;;;5032708;28;20206;-68
2021/06/30 06:32:04;;;;;;;3.88;1.40;;;22.60;61.70;;;;;;5032698;28;20641;-68
2021/06/30 06:34:30;;;;;;;1.77;1.02;;;22.60;61.80;;;;;;5032361;28;20187;-67
2021/06/30 06:36:56;;;;;;;1.05;0.98;;;22.60;61.80;;;;;;5032831;28;20184;-68
2021/06/30 06:39:22;;;;;;;1.05;0.95;;;22.60;61.80;;;;;;5015006;28;20302;-69
2021/06/30 06:41:48;;;;;;;1.27;1.17;;;22.60;61.80;;;;;;5014591;28;20259;-68
2021/06/30 06:44:13;;;;;;;1.95;1.42;;;22.60;61.80;;;;;;5032985;28;20218;-69
2021/06/30 06:46:39;;;;;;;1.88;1.27;;;22.60;61.80;;;;;;5032367;28;20263;-68
2021/06/30 06:49:05;;;;;;;3.95;1.23;;;22.60;61.90;;;;;;5014599;28;20231;-68
2021/06/30 06:51:31;;;;;;;2.80;1.38;;;22.60;61.80;;;;;;5032384;28;20180;-68
2021/06/30 06:53:56;;;;;;;1.15;1.08;;;22.60;61.80;;;;;;5032485;28;20653;-68
2021/06/30 06:56:26;;;;;;;2.08;1.45;;;22.60;61.70;;;;;;5032421;28;20271;-67
2021/06/30 06:58:52;;;;;;;1.70;1.10;;;22.60;61.60;;;;;;5032426;28;20208;-67
2021/06/30 07:01:17;;;;;;;1.45;1.20;;;22.60;61.70;;;;;;5032764;28;20182;-67
2021/06/30 07:03:43;;;;;;;0.90;0.90;;;22.60;61.70;;;;;;5031808;28;20639;-68
2021/06/30 07:06:15;;;;;;;1.92;1.17;;;22.60;61.60;;;;;;5032592;28;20180;-68
2021/06/30 07:08:40;;;;;;;1.48;1.15;;;22.60;61.60;;;;;;5032509;28;20210;-69
2021/06/30 07:11:08;;;;;;;1.70;1.03;;;22.60;61.50;;;;;;5031598;28;20406;-66
2021/06/30 07:13:35;;;;;;;1.20;1.08;;;22.60;61.50;;;;;;5032132;28;20180;-66
2021/06/30 07:16:00;;;;;;;2.05;1.00;;;22.60;61.90;;;;;;5032529;28;20176;-66
2021/06/30 07:18:26;;;;;;;3.05;1.25;;;22.60;61.60;;;;;;5031750;28;20580;-66
2021/06/30 07:20:52;;;;;;;3.40;1.10;;;22.60;61.40;;;;;;5032220;28;20187;-66
2021/06/30 07:23:17;;;;;;;1.88;1.33;;;22.60;61.30;;;;;;5032719;28;20247;-66
2021/06/30 07:25:43;;;;;;;2.60;1.30;;;22.60;62.30;;;;;;5031766;28;20272;-65
2021/06/30 07:28:08;;;;;;;1.27;1.17;;;22.60;62.40;;;;;;5032494;28;20717;-66
2021/06/30 07:30:34;;;;;;;1.50;1.23;;;22.60;62.10;;;;;;5031829;28;20172;-66
2021/06/30 07:33:00;;;;;;;2.15;1.30;;;22.60;62.60;;;;;;5033556;28;20266;-64
2021/06/30 07:35:26;;;;;;;4.40;1.33;;;22.60;62.60;;;;;;5035820;28;20627;-65
2021/06/30 07:37:51;;;;;;;3.80;1.20;;;22.60;62.00;;;;;;5035017;28;20555;-67
2021/06/30 07:40:17;;;;;;;1.20;1.10;;;22.70;62.50;;;;;;5036109;28;20253;-67
2021/06/30 07:42:42;;;;;;;1.30;1.20;;;22.60;62.50;;;;;;5035572;28;20640;-66
2021/06/30 07:45:11;;;;;;;1.52;1.08;;;22.60;62.40;;;;;;5035742;28;20176;-66
2021/06/30 07:47:37;;;;;;;1.45;1.00;;;22.70;62.20;;;;;;5035086;28;20176;-66
2021/06/30 07:50:04;;;;;;;1.63;1.13;;;22.70;62.20;;;;;;5035266;28;20223;-66
2021/06/30 07:52:30;;;;;;;4.10;1.20;;;22.70;62.30;;;;;;5035167;28;20223;-66
2021/06/30 07:54:55;;;;;;;1.30;0.85;;;22.70;62.30;;;;;;5035959;28;20168;-66
2021/06/30 07:57:21;;;;;;;0.98;0.98;;;22.70;62.20;;;;;;5035672;28;20176;-66
2021/06/30 07:59:46;;;;;;;1.40;1.23;;;22.70;62.20;;;;;;5034826;28;20211;-65
2021/06/30 08:02:12;;;;;;;3.20;1.15;;;22.70;62.10;;;;;;5035503;28;20172;-66
2021/06/30 08:04:38;;;;;;;1.20;1.10;;;22.70;62.10;;;;;;5035289;28;20660;-66
2021/06/30 08:07:03;;;;;;;1.17;1.00;;;22.70;62.00;;;;;;5035329;28;20637;-66
2021/06/30 08:09:31;;;;;;;1.92;1.13;;;22.70;62.00;;;;;;5035540;28;20573;-67
2021/06/30 08:12:01;;;;;;;1.40;1.30;;;22.70;62.10;;;;;;5035309;28;20274;-66
2021/06/30 08:14:27;;;;;;;1.92;1.00;;;22.70;62.10;;;;;;5035074;28;20175;-67
2021/06/30 08:16:52;;;;;;;0.80;0.80;;;22.70;62.10;;;;;;5034795;28;20172;-66
2021/06/30 08:19:18;;;;;;;1.55;1.00;;;22.70;62.10;;;;;;5035547;28;20290;-66
2021/06/30 08:21:43;;;;;;;3.05;1.23;;;22.70;62.10;;;;;;5034522;28;20176;-67
2021/06/30 08:24:09;;;;;;;1.63;0.90;;;22.70;62.10;;;;;;5035231;28;20662;-66
2021/06/30 08:26:34;;;;;;;1.20;1.10;;;22.70;62.00;;;;;;5040566;28;20222;-66
2021/06/30 08:29:00;;;;;;;2.55;1.10;;;22.70;62.00;;;;;;5036284;28;20222;-67
2021/06/30 08:31:26;;;;;;;2.10;1.17;;;22.70;62.10;;;;;;5034931;28;20182;-64
2021/06/30 08:33:52;;;;;;;2.83;1.48;;;22.70;62.00;;;;;;5033787;28;20178;-64
2021/06/30 08:36:17;;;;;;;0.90;0.90;;;22.70;61.80;;;;;;5034904;28;20179;-64
2021/06/30 08:38:43;;;;;;;2.80;1.10;;;22.70;61.70;;;;;;5033926;28;20669;-64
2021/06/30 08:41:08;;;;;;;1.55;1.20;;;22.70;61.80;;;;;;5034451;28;20194;-65
2021/06/30 08:43:34;;;;;;;1.77;1.33;;;22.70;62.00;;;;;;5017072;28;20187;-65
2021/06/30 08:46:01;;;;;;;1.30;1.20;;;22.70;62.00;;;;;;5033472;28;20206;-73
2021/06/30 08:48:28;;;;;;;1.40;1.30;;;22.70;61.80;;;;;;5034268;28;20634;-66
2021/06/30 08:50:53;;;;;;;3.58;1.58;;;22.60;61.60;;;;;;5034287;28;20306;-66
2021/06/30 08:53:19;;;;;;;1.52;1.42;;;22.60;61.50;;;;;;5016925;28;20287;-66
2021/06/30 08:55:45;;;;;;;2.72;1.40;;;22.60;61.50;;;;;;5016297;28;20305;-66
2021/06/30 08:58:12;;;;;;;2.55;1.20;;;22.60;61.60;;;;;;5034488;28;20226;-66
2021/06/30 09:00:38;;;;;;;2.35;1.38;;;22.60;61.50;;;;;;5033800;28;20219;-66
2021/06/30 09:03:05;;;;;;;1.60;1.00;;;22.60;61.50;;;;;;5034124;28;20226;-66
2021/06/30 09:07:56;;;;;;;1.35;1.13;;;22.60;61.30;;;;;;5034328;28;20241;-66
2021/06/30 09:10:38;;;;;;;1.40;1.30;;;22.60;61.40;;;;;;5033925;28;20180;-67
2021/06/30 09:13:07;;;;;;;1.55;1.10;;;22.60;61.30;;;;;;5033977;28;20638;-66
2021/06/30 09:15:34;;;;;;;1.90;1.10;;;22.60;61.40;;;;;;5034135;28;20190;-66
2021/06/30 09:18:25;;;;;;;1.17;1.10;;;22.60;61.30;;;;;;5033888;28;20191;-66
2021/06/30 09:20:50;;;;;;;3.83;1.80;;;22.60;61.30;;;;;;5033605;28;20548;-67
2021/06/30 09:23:16;;;;;;;1.35;1.25;;;22.60;61.30;;;;;;5033600;28;20175;-67
2021/06/30 09:25:43;;;;;;;2.53;1.40;;;22.60;61.20;;;;;;5033952;28;20263;-67
2021/06/30 09:28:13;;;;;;;1.25;1.20;;;22.60;61.20;;;;;;5033899;28;20190;-66
2021/06/30 09:30:58;;;;;;;1.38;1.10;;;22.60;61.20;;;;;;5033281;28;20222;-66
2021/06/30 09:33:23;;;;;;;1.13;1.13;;;22.60;61.10;;;;;;5034011;28;20234;-66
2021/06/30 09:35:53;;;;;;;1.40;1.30;;;22.60;61.00;;;;;;5033204;28;20654;-66
2021/06/30 09:38:30;;;;;;;1.85;1.40;;;22.60;61.10;;;;;;5015346;28;20172;-67
2021/06/30 09:40:55;;;;;;;1.42;1.33;;;22.60;61.10;;;;;;5033466;28;20657;-67
2021/06/30 09:43:34;;;;;;;0.90;0.90;;;22.50;61.00;;;;;;5033832;28;20180;-66
2021/06/30 09:46:18;;;;;;;1.17;1.15;;;22.60;61.00;;;;;;5033301;28;20172;-67
2021/06/30 09:48:43;;;;;;;1.45;1.10;;;22.60;61.00;;;;;;5016291;28;20176;-67
2021/06/30 09:51:15;;;;;;;1.40;1.30;;;22.60;61.00;;;;;;5032950;28;20231;-67
2021/06/30 09:53:41;;;;;;;1.38;1.27;;;22.60;60.90;;;;;;5016675;28;20184;-66
2021/06/30 09:56:38;;;;;;;1.08;1.05;;;22.60;60.80;;;;;;5033426;28;20168;-66
2021/06/30 09:59:21;;;;;;;3.15;0.93;;;22.60;61.00;;;;;;5033333;28;20290;-66
2021/06/30 10:02:11;;;;;;;1.40;1.30;;;22.60;61.10;;;;;;5033411;28;20275;-66
2021/06/30 10:04:41;;;;;;;1.30;1.20;;;22.50;61.00;;;;;;5032674;28;20231;-68
2021/06/30 10:07:11;;;;;;;1.13;1.10;;;22.60;61.20;;;;;;5032816;28;20226;-66
2021/06/30 10:09:37;;;;;;;2.13;1.33;;;22.60;61.10;;;;;;5032923;28;20175;-67
2021/06/30 10:12:11;;;;;;;1.40;1.02;;;22.60;61.10;;;;;;5033318;28;20205;-66
2021/06/30 10:14:38;;;;;;;1.35;1.25;;;22.60;61.10;;;;;;5033090;28;20194;-66
2021/06/30 10:17:04;;;;;;;3.15;1.45;;;22.60;61.20;;;;;;5033194;28;20179;-67
2021/06/30 10:19:29;;;;;;;2.03;1.15;;;22.60;61.10;;;;;;5032268;28;20261;-66
2021/06/30 10:21:55;;;;;;;1.77;1.00;;;22.60;61.10;;;;;;5032997;28;20179;-67
2021/06/30 10:24:21;;;;;;;1.10;1.00;;;22.60;61.00;;;;;;5032949;28;20175;-67
2021/06/30 10:26:47;;;;;;;1.70;1.45;;;22.60;60.90;;;;;;5032238;28;20202;-65
2021/06/30 10:29:12;;;;;;;1.33;1.23;;;22.60;60.90;;;;;;5032844;28;20187;-65
2021/06/30 10:31:38;;;;;;;1.33;1.20;;;22.60;60.80;;;;;;5032439;28;20288;-64
2021/06/30 10:34:06;;;;;;;1.10;1.08;;;22.70;60.90;;;;;;5015058;28;20206;-65
2021/06/30 10:36:54;;;;;;;1.15;1.15;;;22.70;60.60;;;;;;5032375;28;20662;-66
2021/06/30 10:39:35;;;;;;;1.33;0.98;;;22.70;60.80;;;;;;5032650;28;20215;-65
2021/06/30 10:42:15;;;;;;;1.38;1.00;;;22.70;60.60;;;;;;5032260;28;20186;-65
2021/06/30 10:44:55;;;;;;;2.03;1.10;;;22.70;60.60;;;;;;5032198;28;20172;-67
2021/06/30 10:47:30;;;;;;;1.73;1.23;;;22.70;60.80;;;;;;5032788;28;20186;-66
2021/06/30 10:50:25;;;;;;;1.10;1.00;;;22.70;60.40;;;;;;5032588;28;20231;-67
2021/06/30 10:52:52;;;;;;;1.23;0.93;;;22.70;60.60;;;;;;5032249;28;20199;-67
2021/06/30 10:55:33;;;;;;;1.00;1.00;;;22.70;60.60;;;;;;5032396;28;20183;-66
2021/06/30 10:58:10;;;;;;;1.05;1.05;;;22.70;60.80;;;;;;5032720;28;20224;-65
2021/06/30 11:01:05;;;;;;;1.08;1.05;;;22.70;60.80;;;;;;5032270;28;20594;-66
2021/06/30 11:03:38;;;;;;;1.02;0.90;;;22.70;60.80;;;;;;5015058;28;20541;-76
2021/06/30 11:06:10;;;;;;;2.67;1.15;;;22.80;60.90;;;;;;5032631;28;20646;-78
2021/06/30 11:08:49;;;;;;;1.10;1.10;;;22.80;60.80;;;;;;5034409;28;20259;-77
2021/06/30 11:11:40;;;;;;;1.27;1.17;;;22.80;60.80;;;;;;5037002;28;20264;-73
2021/06/30 11:14:12;;;;;;;1.15;1.00;;;22.90;60.80;;;;;;5029645;28;20234;-76
2021/06/30 11:16:44;;;;;;;1.63;0.95;;;22.90;60.90;;;;;;5035977;28;20197;-74
2021/06/30 11:19:18;;;;;;;5.95;1.55;;;22.90;60.90;;;;;;5036262;28;20211;-74
2021/06/30 11:21:44;;;;;;;1.45;0.98;;;22.90;61.10;;;;;;5036101;28;20171;-77
2021/06/30 11:24:39;;;;;;;0.80;0.80;;;22.80;61.30;;;;;;5035695;28;20727;-76
2021/06/30 11:27:07;;;;;;;1.00;1.00;;;22.80;61.40;;;;;;5036113;28;20172;-67
2021/06/30 11:29:42;;;;;;;2.03;0.95;;;22.80;61.60;;;;;;5035779;28;20199;-67
2021/06/30 11:32:08;;;;;;;3.60;1.00;;;22.70;61.70;;;;;;5036395;28;20175;-67
2021/06/30 11:34:38;;;;;;;1.30;1.20;;;22.70;61.60;;;;;;5018045;28;20270;-67
2021/06/30 11:37:04;;;;;;;1.73;1.00;;;22.70;61.70;;;;;;5035483;28;20496;-67
2021/06/30 11:39:30;;;;;;;2.80;1.15;;;22.60;61.50;;;;;;5035499;28;20704;-67
2021/06/30 11:41:55;;;;;;;1.42;1.33;;;22.60;61.40;;;;;;5018425;28;20175;-70
2021/06/30 11:44:22;;;;;;;1.85;1.08;;;22.60;61.40;;;;;;5035541;28;20167;-69
2021/06/30 11:46:48;;;;;;;1.10;1.10;;;22.50;61.30;;;;;;5018088;28;20191;-69
2021/06/30 11:49:18;;;;;;;1.35;1.25;;;22.50;61.20;;;;;;5035287;28;20234;-69
2021/06/30 11:51:44;;;;;;;1.10;1.10;;;22.50;61.20;;;;;;5035101;28;20190;-68
2021/06/30 11:54:16;;;;;;;1.30;0.95;;;22.50;61.00;;;;;;5018073;28;20184;-68
2021/06/30 11:56:42;;;;;;;1.88;1.40;;;22.50;61.00;;;;;;5035544;28;20692;-69
2021/06/30 11:59:15;;;;;;;1.20;1.10;;;22.50;60.90;;;;;;5035053;28;20207;-68
2021/06/30 12:01:41;;;;;;;1.27;1.17;;;22.50;60.90;;;;;;5035121;28;20593;-69
2021/06/30 12:04:22;;;;;;;1.35;1.25;;;22.50;61.00;;;;;;5035863;28;20267;-69
2021/06/30 12:07:04;;;;;;;1.50;1.40;;;22.50;60.80;;;;;;5034906;28;20176;-69
2021/06/30 12:09:31;;;;;;;1.50;1.40;;;22.50;60.90;;;;;;5035059;28;20179;-66
2021/06/30 12:11:58;;;;;;;1.60;1.50;;;22.50;60.80;;;;;;5035197;28;20184;-68
2021/06/30 12:14:27;;;;;;;2.75;1.77;;;22.50;60.60;;;;;;5035350;28;20246;-68
2021/06/30 12:17:03;;;;;;;1.73;1.63;;;22.50;60.60;;;;;;5035269;28;20172;-69
2021/06/30 12:19:34;;;;;;;1.75;1.48;;;22.50;60.50;;;;;;5033669;28;20257;-68
2021/06/30 12:22:00;;;;;;;1.50;1.40;;;22.50;60.40;;;;;;5035406;28;20176;-68
2021/06/30 12:24:25;;;;;;;1.67;1.58;;;22.50;60.50;;;;;;5035008;28;20253;-68
2021/06/30 12:27:06;;;;;;;2.00;1.38;;;22.50;60.50;;;;;;5034210;28;20187;-68
2021/06/30 12:29:33;;;;;;;1.30;1.27;;;22.50;60.50;;;;;;5034798;28;20230;-67
2021/06/30 12:32:00;;;;;;;2.10;1.73;;;22.50;60.50;;;;;;5035219;28;20180;-67
2021/06/30 12:34:26;;;;;;;1.60;1.50;;;22.50;60.60;;;;;;5016925;28;20179;-67
2021/06/30 12:36:51;;;;;;;3.10;1.80;;;22.50;60.60;;;;;;5034367;28;20160;-67
2021/06/30 12:39:28;;;;;;;2.05;1.80;;;22.50;60.80;;;;;;5035117;28;20217;-67
2021/06/30 12:42:05;;;;;;;2.03;1.83;;;22.50;60.70;;;;;;5034001;28;20698;-68
2021/06/30 12:44:50;;;;;;;1.98;1.77;;;22.50;60.70;;;;;;5034530;28;20626;-67
2021/06/30 12:47:15;;;;;;;1.80;1.70;;;22.40;60.70;;;;;;5034320;28;20184;-67
2021/06/30 12:49:41;;;;;;;2.05;1.95;;;22.50;60.70;;;;;;5034343;28;20235;-67
2021/06/30 12:52:19;;;;;;;2.33;2.13;;;22.40;60.70;;;;;;5017143;28;20182;-68